createdAt,value
2024-02-29T00:00:05.914Z,558.00
2024-02-29T00:01:06.031Z,561.00
2024-02-29T00:02:05.915Z,565.00
2024-02-29T00:03:05.913Z,564.00
2024-02-29T00:04:06.027Z,564.00
2024-02-29T00:56:05.200Z,561.00
2024-02-29T00:57:06.182Z,562.00
2024-02-29T00:58:06.221Z,564.00
2024-02-29T00:59:06.205Z,558.00
2024-02-29T01:00:06.233Z,559.00
2024-02-29T01:01:06.217Z,560.00
2024-02-29T01:02:06.221Z,559.00
2024-02-29T01:03:06.194Z,557.00
2024-02-29T01:04:06.216Z,554.00
2024-02-29T01:05:06.221Z,553.00
2024-02-29T01:06:06.195Z,555.00
2024-02-29T01:07:06.257Z,554.00
2024-02-29T01:08:06.201Z,553.00
2024-02-29T01:09:06.239Z,552.00
2024-02-29T01:10:06.289Z,547.00
2024-02-29T01:11:06.221Z,551.00
2024-02-29T01:12:06.321Z,552.00
2024-02-29T01:13:06.293Z,551.00
2024-02-29T01:14:06.243Z,551.00
2024-02-29T01:15:06.234Z,551.00
2024-02-29T01:16:06.386Z,549.00
2024-02-29T01:17:06.207Z,551.00
2024-02-29T01:18:06.239Z,552.00
2024-02-29T01:19:06.274Z,553.00
2024-02-29T01:20:06.213Z,552.00
2024-02-29T01:21:06.228Z,555.00
2024-02-29T01:22:06.280Z,554.00
2024-02-29T01:23:06.223Z,556.00
2024-02-29T01:24:06.236Z,556.00
2024-02-29T01:25:06.280Z,556.00
2024-02-29T01:26:06.219Z,556.00
2024-02-29T01:27:06.226Z,559.00
2024-02-29T01:28:06.283Z,560.00
2024-02-29T01:29:06.226Z,559.00
2024-02-29T01:30:06.225Z,561.00
2024-02-29T01:31:06.248Z,561.00
2024-02-29T01:32:15.501Z,561.00
2024-02-29T01:33:06.256Z,560.00
2024-02-29T01:34:06.273Z,561.00
2024-02-29T01:35:06.240Z,561.00
2024-02-29T01:36:06.243Z,565.00
2024-02-29T01:37:06.280Z,563.00
2024-02-29T01:38:06.236Z,563.00
2024-02-29T01:39:06.254Z,561.00
2024-02-29T01:40:06.324Z,559.00
2024-02-29T01:41:06.238Z,558.00
2024-02-29T01:42:06.241Z,557.00
2024-02-29T01:43:06.265Z,557.00
2024-02-29T01:44:06.281Z,558.00
2024-02-29T01:45:06.243Z,561.00
2024-02-29T01:46:06.300Z,558.00
2024-02-29T01:47:06.242Z,555.00
2024-02-29T01:48:06.290Z,553.00
2024-02-29T01:49:06.323Z,553.00
2024-02-29T01:50:06.251Z,552.00
2024-02-29T01:51:06.252Z,553.00
2024-02-29T01:52:06.347Z,555.00
2024-02-29T01:53:06.254Z,557.00
2024-02-29T01:54:06.261Z,557.00
2024-02-29T01:55:06.325Z,556.00
2024-02-29T01:56:06.266Z,558.00
2024-02-29T01:57:06.257Z,556.00
2024-02-29T01:58:06.294Z,555.00
2024-02-29T01:59:06.266Z,555.00
2024-02-29T02:00:06.876Z,555.00
2024-02-29T02:01:06.347Z,555.00
2024-02-29T02:02:06.263Z,556.00
2024-02-29T02:03:06.266Z,556.00
2024-02-29T02:04:06.344Z,556.00
2024-02-29T02:05:06.272Z,558.00
2024-02-29T02:06:06.292Z,559.00
2024-02-29T02:07:06.431Z,558.00
2024-02-29T02:08:06.278Z,561.00
2024-02-29T02:09:06.312Z,560.00
2024-02-29T02:10:06.300Z,558.00
2024-02-29T02:11:06.340Z,558.00
2024-02-29T02:12:06.297Z,558.00
2024-02-29T02:13:06.359Z,558.00
2024-02-29T02:14:06.286Z,559.00
2024-02-29T02:15:06.294Z,558.00
2024-02-29T02:16:06.392Z,559.00
2024-02-29T02:17:06.293Z,561.00
2024-02-29T02:18:06.324Z,558.00
2024-02-29T02:19:06.413Z,556.00
2024-02-29T02:20:06.300Z,556.00
2024-02-29T02:21:06.295Z,555.00
2024-02-29T02:22:06.432Z,557.00
2024-02-29T02:23:06.292Z,559.00
2024-02-29T02:24:06.299Z,561.00
2024-02-29T02:25:06.325Z,564.00
2024-02-29T02:26:06.299Z,564.00
2024-02-29T02:27:06.315Z,562.00
2024-02-29T02:28:06.356Z,559.00
2024-02-29T02:29:06.338Z,559.00
2024-02-29T02:30:06.310Z,558.00
2024-02-29T02:31:06.364Z,557.00
2024-02-29T02:32:06.334Z,558.00
2024-02-29T02:33:06.345Z,560.00
2024-02-29T02:34:06.376Z,561.00
2024-02-29T02:35:06.320Z,560.00
2024-02-29T02:36:06.330Z,557.00
2024-02-29T02:37:06.358Z,557.00
2024-02-29T02:38:06.312Z,557.00
2024-02-29T02:39:06.313Z,557.00
2024-02-29T02:41:05.326Z,555.00
2024-02-29T02:42:06.323Z,555.00
2024-02-29T02:44:05.339Z,555.00
2024-02-29T02:45:06.324Z,557.00
2024-02-29T02:46:06.336Z,559.00
2024-02-29T02:47:06.336Z,561.00
2024-02-29T02:48:06.504Z,562.00
2024-02-29T02:49:06.452Z,559.00
2024-02-29T02:50:06.359Z,562.00
2024-02-29T02:51:06.337Z,560.00
2024-02-29T02:52:06.354Z,560.00
2024-02-29T02:53:06.346Z,562.00
2024-02-29T02:54:06.339Z,561.00
2024-02-29T02:55:06.427Z,562.00
2024-02-29T02:56:06.353Z,559.00
2024-02-29T02:57:06.345Z,559.00
2024-02-29T02:58:06.379Z,559.00
2024-02-29T02:59:06.355Z,563.00
2024-02-29T03:00:06.386Z,561.00
2024-02-29T03:01:06.431Z,562.00
2024-02-29T03:02:06.458Z,563.00
2024-02-29T03:03:06.433Z,565.00
2024-02-29T03:04:06.510Z,565.00
2024-02-29T03:05:06.474Z,563.00
2024-02-29T03:06:06.480Z,561.00
2024-02-29T03:07:06.548Z,560.00
2024-02-29T03:08:06.516Z,558.00
2024-02-29T03:09:06.998Z,555.00
2024-02-29T03:10:06.624Z,555.00
2024-02-29T03:11:06.605Z,557.00
2024-02-29T03:12:06.624Z,558.00
2024-02-29T03:13:06.634Z,562.00
2024-02-29T03:14:06.621Z,563.00
2024-02-29T03:15:06.680Z,562.00
2024-02-29T03:16:06.754Z,561.00
2024-02-29T03:17:06.681Z,559.00
2024-02-29T03:18:06.774Z,558.00
2024-02-29T03:19:06.789Z,556.00
2024-02-29T03:20:06.822Z,556.00
2024-02-29T03:21:06.834Z,556.00
2024-02-29T03:22:06.976Z,556.00
2024-02-29T03:23:06.924Z,559.00
2024-02-29T03:24:06.972Z,558.00
2024-02-29T03:25:07.070Z,560.00
2024-02-29T03:26:07.075Z,557.00
2024-02-29T03:27:07.128Z,557.00
2024-02-29T03:28:07.255Z,555.00
2024-02-29T03:29:07.225Z,557.00
2024-02-29T03:30:07.260Z,559.00
2024-02-29T03:31:07.345Z,556.00
2024-02-29T03:32:07.361Z,556.00
2024-02-29T03:33:07.443Z,553.00
2024-02-29T03:34:07.511Z,555.00
2024-02-29T03:35:07.494Z,556.00
2024-02-29T03:36:07.568Z,556.00
2024-02-29T03:37:07.656Z,554.00
2024-02-29T03:38:07.653Z,551.00
2024-02-29T03:39:07.681Z,553.00
2024-02-29T03:40:07.814Z,554.00
2024-02-29T03:41:08.047Z,556.00
2024-02-29T03:42:07.852Z,554.00
2024-02-29T03:43:07.900Z,554.00
2024-02-29T03:44:07.917Z,558.00
2024-02-29T03:45:07.981Z,559.00
2024-02-29T03:46:08.071Z,557.00
2024-02-29T03:47:08.061Z,558.00
2024-02-29T03:48:08.157Z,558.00
2024-02-29T03:49:08.221Z,554.00
2024-02-29T03:50:08.213Z,556.00
2024-02-29T03:51:08.255Z,555.00
2024-02-29T03:52:08.413Z,552.00
2024-02-29T03:53:08.388Z,552.00
2024-02-29T03:54:08.414Z,553.00
2024-02-29T03:55:08.549Z,552.00
2024-02-29T03:56:08.529Z,552.00
2024-02-29T03:57:08.570Z,555.00
2024-02-29T03:58:08.647Z,554.00
2024-02-29T03:59:08.678Z,554.00
2024-02-29T04:00:08.728Z,554.00
2024-02-29T04:01:08.820Z,557.00
2024-02-29T04:02:08.816Z,559.00
2024-02-29T04:03:08.859Z,558.00
2024-02-29T04:04:09.015Z,558.00
2024-02-29T04:05:08.968Z,559.00
2024-02-29T04:06:09.021Z,559.00
2024-02-29T04:07:09.208Z,559.00
2024-02-29T04:08:09.148Z,558.00
2024-02-29T04:09:09.183Z,559.00
2024-02-29T04:10:09.330Z,560.00
2024-02-29T04:11:09.321Z,563.00
2024-02-29T04:12:09.349Z,566.00
2024-02-29T04:13:09.472Z,567.00
2024-02-29T04:14:09.450Z,567.00
2024-02-29T04:15:09.508Z,568.00
2024-02-29T04:16:09.601Z,567.00
2024-02-29T04:17:09.613Z,566.00
2024-02-29T04:18:09.713Z,565.00
2024-02-29T04:19:09.801Z,562.00
2024-02-29T04:20:09.998Z,563.00
2024-02-29T04:21:09.814Z,562.00
2024-02-29T04:22:09.922Z,560.00
2024-02-29T04:23:09.959Z,562.00
2024-02-29T04:24:09.992Z,563.00
2024-02-29T04:25:10.136Z,561.00
2024-02-29T04:26:10.076Z,559.00
2024-02-29T04:27:10.154Z,557.00
2024-02-29T04:28:10.225Z,556.00
2024-02-29T04:29:10.205Z,558.00
2024-02-29T04:30:10.218Z,559.00
2024-02-29T04:31:10.294Z,559.00
2024-02-29T04:32:10.253Z,558.00
2024-02-29T04:33:10.294Z,561.00
2024-02-29T04:34:10.374Z,560.00
2024-02-29T04:35:10.326Z,558.00
2024-02-29T04:36:10.315Z,561.00
2024-02-29T04:37:10.344Z,561.00
2024-02-29T04:38:10.340Z,563.00
2024-02-29T04:39:10.344Z,563.00
2024-02-29T04:40:11.530Z,558.00
2024-02-29T04:41:10.460Z,557.00
2024-02-29T04:42:17.640Z,556.00
2024-02-29T04:43:18.681Z,555.00
2024-02-29T04:44:18.645Z,553.00
2024-02-29T04:45:18.638Z,554.00
2024-02-29T04:46:18.716Z,553.00
2024-02-29T04:47:18.640Z,553.00
2024-02-29T04:48:18.660Z,550.00
2024-02-29T04:49:18.718Z,547.00
2024-02-29T04:50:18.661Z,545.00
2024-02-29T04:51:18.642Z,548.00
2024-02-29T04:52:18.663Z,550.00
2024-02-29T04:53:18.654Z,550.00
2024-02-29T04:54:18.650Z,549.00
2024-02-29T04:55:18.793Z,550.00
2024-02-29T04:56:18.662Z,550.00
2024-02-29T04:57:18.658Z,551.00
2024-02-29T04:58:18.732Z,552.00
2024-02-29T04:59:18.659Z,552.00
2024-02-29T05:00:18.649Z,550.00
2024-02-29T05:01:18.903Z,550.00
2024-02-29T05:02:18.662Z,550.00
2024-02-29T05:03:18.658Z,552.00
2024-02-29T05:04:18.698Z,550.00
2024-02-29T05:05:18.655Z,551.00
2024-02-29T05:06:18.670Z,548.00
2024-02-29T05:07:18.810Z,548.00
2024-02-29T05:08:18.671Z,550.00
2024-02-29T05:09:18.697Z,553.00
2024-02-29T05:10:18.732Z,556.00
2024-02-29T05:11:18.730Z,557.00
2024-02-29T05:12:18.668Z,557.00
2024-02-29T05:13:18.721Z,560.00
2024-02-29T05:14:18.682Z,562.00
2024-02-29T05:15:18.673Z,559.00
2024-02-29T05:16:18.729Z,561.00
2024-02-29T05:17:18.681Z,561.00
2024-02-29T05:18:18.681Z,559.00
2024-02-29T05:19:18.743Z,559.00
2024-02-29T05:20:18.679Z,557.00
2024-02-29T05:21:18.692Z,554.00
2024-02-29T05:22:18.775Z,554.00
2024-02-29T05:23:18.696Z,557.00
2024-02-29T05:24:18.704Z,554.00
2024-02-29T05:25:18.747Z,554.00
2024-02-29T05:26:18.694Z,552.00
2024-02-29T05:27:18.741Z,549.00
2024-02-29T05:28:18.781Z,549.00
2024-02-29T05:29:18.752Z,546.00
2024-02-29T05:30:18.714Z,547.00
2024-02-29T05:31:18.747Z,547.00
2024-02-29T05:32:19.264Z,546.00
2024-02-29T05:33:18.723Z,544.00
2024-02-29T05:34:18.827Z,546.00
2024-02-29T05:35:18.716Z,548.00
2024-02-29T05:36:18.740Z,550.00
2024-02-29T05:37:18.862Z,551.00
2024-02-29T05:38:18.724Z,552.00
2024-02-29T05:39:18.729Z,554.00
2024-02-29T05:40:18.793Z,554.00
2024-02-29T05:41:18.861Z,554.00
2024-02-29T05:42:18.739Z,552.00
2024-02-29T05:43:18.821Z,551.00
2024-02-29T05:44:18.736Z,553.00
2024-02-29T05:45:18.735Z,555.00
2024-02-29T05:46:18.813Z,556.00
2024-02-29T05:47:18.758Z,556.00
2024-02-29T05:48:18.746Z,557.00
2024-02-29T05:49:18.882Z,554.00
2024-02-29T05:50:18.793Z,554.00
2024-02-29T05:51:18.820Z,553.00
2024-02-29T05:52:18.958Z,552.00
2024-02-29T05:53:18.889Z,550.00
2024-02-29T05:54:18.941Z,550.00
2024-02-29T05:55:19.171Z,550.00
2024-02-29T05:56:18.992Z,550.00
2024-02-29T05:57:19.028Z,550.00
2024-02-29T05:58:19.152Z,550.00
2024-02-29T05:59:19.089Z,549.00
2024-02-29T06:00:19.073Z,549.00
2024-02-29T06:01:19.277Z,550.00
2024-02-29T06:02:19.093Z,551.00
2024-02-29T06:03:19.091Z,551.00
2024-02-29T06:04:19.306Z,549.00
2024-02-29T06:05:19.115Z,548.00
2024-02-29T06:06:19.139Z,547.00
2024-02-29T06:07:19.169Z,547.00
2024-02-29T06:08:19.172Z,549.00
2024-02-29T06:09:19.174Z,547.00
2024-02-29T06:10:19.296Z,548.00
2024-02-29T06:11:19.267Z,547.00
2024-02-29T06:12:19.200Z,545.00
2024-02-29T06:13:19.376Z,546.00
2024-02-29T06:14:19.230Z,546.00
2024-02-29T06:15:19.272Z,546.00
2024-02-29T06:16:19.308Z,552.00
2024-02-29T06:17:19.266Z,553.00
2024-02-29T06:18:19.273Z,553.00
2024-02-29T06:19:19.314Z,560.00
2024-02-29T06:20:19.300Z,561.00
2024-02-29T06:21:19.308Z,565.00
2024-02-29T06:22:19.425Z,565.00
2024-02-29T06:23:19.326Z,564.00
2024-02-29T06:24:20.125Z,563.00
2024-02-29T06:25:19.890Z,569.00
2024-02-29T06:26:19.358Z,572.00
2024-02-29T06:27:19.367Z,572.00
2024-02-29T06:28:22.954Z,574.00
2024-02-29T06:29:19.378Z,576.00
2024-02-29T06:30:19.378Z,575.00
2024-02-29T06:31:19.469Z,575.00
2024-02-29T06:32:19.379Z,576.00
2024-02-29T06:33:19.382Z,577.00
2024-02-29T06:34:19.489Z,578.00
2024-02-29T06:35:19.390Z,577.00
2024-02-29T06:36:19.384Z,576.00
2024-02-29T06:37:19.887Z,579.00
2024-02-29T06:38:19.382Z,579.00
2024-02-29T06:39:19.397Z,579.00
2024-02-29T06:40:19.511Z,575.00
2024-02-29T06:41:19.392Z,581.00
2024-02-29T06:42:19.393Z,590.00
2024-02-29T06:43:19.962Z,594.00
2024-02-29T06:44:19.702Z,599.00
2024-02-29T06:45:19.786Z,605.00
2024-02-29T06:46:19.566Z,611.00
2024-02-29T06:47:19.430Z,613.00
2024-02-29T06:48:19.402Z,616.00
2024-02-29T06:49:19.491Z,618.00
2024-02-29T06:50:19.802Z,621.00
2024-02-29T06:51:19.435Z,662.00
2024-02-29T06:52:19.582Z,670.00
2024-02-29T06:53:19.424Z,684.00
2024-02-29T06:54:19.800Z,712.00
2024-02-29T06:55:19.928Z,740.00
2024-02-29T06:56:19.425Z,772.00
2024-02-29T06:57:19.427Z,804.00
2024-02-29T06:58:19.858Z,823.00
2024-02-29T06:59:20.474Z,837.00
2024-02-29T07:00:26.850Z,884.00
2024-02-29T07:01:19.513Z,894.00
2024-02-29T07:02:19.477Z,904.00
2024-02-29T07:03:23.055Z,917.00
2024-02-29T07:04:19.586Z,948.00
2024-02-29T07:05:19.484Z,949.00
2024-02-29T07:06:19.838Z,952.00
2024-02-29T07:07:19.538Z,963.00
2024-02-29T07:08:22.695Z,975.00
2024-02-29T07:09:19.653Z,983.00
2024-02-29T07:10:19.673Z,1028.00
2024-02-29T07:11:19.636Z,1018.00
2024-02-29T07:12:19.704Z,1006.00
2024-02-29T07:13:20.120Z,1021.00
2024-02-29T07:14:19.608Z,1033.00
2024-02-29T07:15:19.968Z,1038.00
2024-02-29T07:16:19.782Z,1043.00
2024-02-29T07:17:20.063Z,1048.00
2024-02-29T07:18:19.549Z,1052.00
2024-02-29T07:19:19.681Z,1058.00
2024-02-29T07:20:19.542Z,1059.00
2024-02-29T07:21:19.511Z,1074.00
2024-02-29T07:22:19.749Z,1071.00
2024-02-29T07:23:19.610Z,1068.00
2024-02-29T07:24:20.441Z,1071.00
2024-02-29T07:25:20.076Z,1069.00
2024-02-29T07:26:19.547Z,1071.00
2024-02-29T07:27:19.593Z,1070.00
2024-02-29T07:28:20.163Z,1070.00
2024-02-29T07:29:19.903Z,1067.00
2024-02-29T07:30:19.949Z,1069.00
2024-02-29T07:31:19.972Z,1067.00
2024-02-29T07:32:20.060Z,1065.00
2024-02-29T07:33:20.368Z,1061.00
2024-02-29T07:34:20.760Z,1058.00
2024-02-29T07:35:20.274Z,1055.00
2024-02-29T07:36:20.048Z,1058.00
2024-02-29T07:37:20.447Z,1063.00
2024-02-29T07:38:20.428Z,1064.00
2024-02-29T07:39:20.047Z,1065.00
2024-02-29T07:40:20.434Z,1067.00
2024-02-29T07:41:27.531Z,1066.00
2024-02-29T07:42:20.944Z,1062.00
2024-02-29T07:43:20.389Z,1065.00
2024-02-29T07:44:20.647Z,1064.00
2024-02-29T07:45:21.088Z,1063.00
2024-02-29T07:46:20.695Z,1045.00
2024-02-29T07:47:20.621Z,1040.00
2024-02-29T07:48:20.575Z,1043.00
2024-02-29T07:49:20.611Z,1052.00
2024-02-29T07:50:20.416Z,1059.00
2024-02-29T07:51:20.785Z,1067.00
2024-02-29T07:52:20.449Z,1067.00
2024-02-29T07:53:20.654Z,1067.00
2024-02-29T07:54:20.430Z,1066.00
2024-02-29T07:55:20.522Z,1066.00
2024-02-29T07:56:20.712Z,1074.00
2024-02-29T07:57:20.490Z,1075.00
2024-02-29T07:58:20.630Z,1074.00
2024-02-29T07:59:20.926Z,1077.00
2024-02-29T08:00:20.440Z,1077.00
2024-02-29T08:01:20.914Z,1074.00
2024-02-29T08:02:22.502Z,1072.00
2024-02-29T08:03:20.816Z,1067.00
2024-02-29T08:04:20.820Z,1070.00
2024-02-29T08:05:20.701Z,1068.00
2024-02-29T08:06:20.895Z,1061.00
2024-02-29T08:07:20.951Z,1059.00
2024-02-29T08:08:20.973Z,1059.00
2024-02-29T08:09:20.841Z,1057.00
2024-02-29T08:10:20.894Z,1051.00
2024-02-29T08:11:20.901Z,1049.00
2024-02-29T08:12:20.713Z,1046.00
2024-02-29T08:13:21.032Z,1047.00
2024-02-29T08:14:21.316Z,1043.00
2024-02-29T08:15:20.845Z,1037.00
2024-02-29T08:16:20.838Z,1037.00
2024-02-29T08:17:20.793Z,1039.00
2024-02-29T08:18:20.850Z,1039.00
2024-02-29T08:19:20.912Z,1041.00
2024-02-29T08:20:20.404Z,1038.00
2024-02-29T08:21:20.470Z,1040.00
2024-02-29T08:22:20.574Z,1044.00
2024-02-29T08:23:20.887Z,1051.00
2024-02-29T08:24:20.690Z,1055.00
2024-02-29T08:25:20.862Z,1053.00
2024-02-29T08:26:20.822Z,1056.00
2024-02-29T08:27:20.915Z,1053.00
2024-02-29T08:28:21.716Z,1057.00
2024-02-29T08:29:21.263Z,1055.00
2024-02-29T08:30:21.654Z,1051.00
2024-02-29T08:31:21.195Z,1048.00
2024-02-29T08:32:21.282Z,1055.00
2024-02-29T08:33:21.395Z,1050.00
2024-02-29T08:34:21.404Z,1051.00
2024-02-29T08:35:21.838Z,1042.00
2024-02-29T08:36:21.474Z,1036.00
2024-02-29T08:37:21.681Z,1028.00
2024-02-29T08:38:21.616Z,1028.00
2024-02-29T08:44:24.137Z,1083.00
2024-02-29T08:45:22.976Z,1078.00
2024-02-29T08:46:21.760Z,1081.00
2024-02-29T08:47:21.851Z,1057.00
2024-02-29T08:48:21.845Z,1084.00
2024-02-29T08:49:22.413Z,1085.00
2024-02-29T08:50:22.370Z,1089.00
2024-02-29T08:51:22.000Z,1080.00
2024-02-29T08:52:22.114Z,1087.00
2024-02-29T08:53:22.349Z,1098.00
2024-02-29T08:54:22.156Z,1103.00
2024-02-29T08:55:22.385Z,1098.00
2024-02-29T08:56:22.237Z,1090.00
2024-02-29T08:57:22.304Z,1083.00
2024-02-29T08:58:22.386Z,1060.00
2024-02-29T08:59:22.406Z,1036.00
2024-02-29T09:00:22.873Z,1003.00
2024-02-29T09:01:22.611Z,976.00
2024-02-29T09:02:23.606Z,933.00
2024-02-29T09:03:22.653Z,911.00
2024-02-29T09:04:22.737Z,902.00
2024-02-29T09:05:22.847Z,890.00
2024-02-29T09:06:22.836Z,852.00
2024-02-29T09:07:23.013Z,841.00
2024-02-29T09:08:23.123Z,832.00
2024-02-29T09:09:23.368Z,830.00
2024-02-29T09:10:23.274Z,821.00
2024-02-29T09:11:23.222Z,813.00
2024-02-29T09:12:23.247Z,810.00
2024-02-29T09:13:30.387Z,807.00
2024-02-29T09:14:23.333Z,799.00
2024-02-29T09:15:23.355Z,784.00
2024-02-29T09:16:23.491Z,782.00
2024-02-29T09:17:23.337Z,781.00
2024-02-29T09:18:23.332Z,781.00
2024-02-29T09:19:23.586Z,777.00
2024-02-29T09:20:23.346Z,778.00
2024-02-29T09:21:23.338Z,778.00
2024-02-29T09:22:23.348Z,776.00
2024-02-29T09:23:23.334Z,775.00
2024-02-29T09:24:23.329Z,772.00
2024-02-29T09:25:23.342Z,772.00
2024-02-29T09:26:23.330Z,773.00
2024-02-29T09:27:23.339Z,772.00
2024-02-29T09:28:23.381Z,767.00
2024-02-29T09:29:26.632Z,762.00
2024-02-29T09:30:23.375Z,754.00
2024-02-29T09:31:26.616Z,744.00
2024-02-29T09:32:23.347Z,738.00
2024-02-29T09:33:23.340Z,733.00
2024-02-29T09:34:23.458Z,727.00
2024-02-29T09:35:23.351Z,724.00
2024-02-29T09:36:23.373Z,719.00
2024-02-29T09:37:23.430Z,714.00
2024-02-29T09:38:23.369Z,712.00
2024-02-29T09:39:23.363Z,709.00
2024-02-29T09:40:23.954Z,706.00
2024-02-29T09:41:40.765Z,700.00
2024-02-29T09:42:23.390Z,697.00
2024-02-29T09:43:23.434Z,694.00
2024-02-29T09:44:23.870Z,695.00
2024-02-29T09:45:25.311Z,730.00
2024-02-29T09:46:23.395Z,773.00
2024-02-29T09:47:23.402Z,771.00
2024-02-29T09:48:23.375Z,821.00
2024-02-29T09:49:23.370Z,832.00
2024-02-29T09:50:24.485Z,802.00
2024-02-29T09:51:23.878Z,803.00
2024-02-29T09:52:23.573Z,772.00
2024-02-29T09:53:23.502Z,726.00
2024-02-29T09:54:23.380Z,731.00
2024-02-29T09:55:23.404Z,812.00
2024-02-29T09:56:23.400Z,773.00
2024-02-29T09:57:23.384Z,756.00
2024-02-29T09:58:23.474Z,749.00
2024-02-29T09:59:23.453Z,752.00
2024-02-29T10:00:23.470Z,746.00
2024-02-29T10:01:24.326Z,735.00
2024-02-29T10:02:23.526Z,733.00
2024-02-29T10:03:23.515Z,734.00
2024-02-29T10:04:23.538Z,810.00
2024-02-29T10:05:23.500Z,788.00
2024-02-29T10:06:23.529Z,781.00
2024-02-29T10:07:23.624Z,781.00
2024-02-29T10:08:23.554Z,778.00
2024-02-29T10:09:23.563Z,781.00
2024-02-29T10:10:23.995Z,765.00
2024-02-29T10:11:23.671Z,766.00
2024-02-29T10:12:23.670Z,772.00
2024-02-29T10:13:23.712Z,793.00
2024-02-29T10:14:23.719Z,742.00
2024-02-29T10:15:23.890Z,765.00
2024-02-29T10:16:26.097Z,745.00
2024-02-29T10:17:23.765Z,746.00
2024-02-29T10:18:23.771Z,739.00
2024-02-29T10:19:24.176Z,785.00
2024-02-29T10:20:39.358Z,769.00
2024-02-29T10:21:23.892Z,766.00
2024-02-29T10:22:23.853Z,750.00
2024-02-29T10:23:23.778Z,744.00
2024-02-29T10:24:23.778Z,739.00
2024-02-29T10:25:23.937Z,725.00
2024-02-29T10:26:23.782Z,725.00
2024-02-29T10:27:23.797Z,667.00
2024-02-29T10:28:23.861Z,688.00
2024-02-29T10:29:25.081Z,664.00
2024-02-29T10:30:23.932Z,633.00
2024-02-29T10:31:23.869Z,627.00
2024-02-29T10:32:23.889Z,652.00
2024-02-29T10:33:23.921Z,653.00
2024-02-29T10:34:23.978Z,654.00
2024-02-29T10:35:23.938Z,654.00
2024-02-29T10:36:23.802Z,664.00
2024-02-29T10:37:23.945Z,658.00
2024-02-29T10:38:23.808Z,684.00
2024-02-29T10:39:23.895Z,726.00
2024-02-29T10:40:24.002Z,730.00
2024-02-29T10:41:23.802Z,813.00
2024-02-29T10:42:23.813Z,801.00
2024-02-29T10:43:23.887Z,805.00
2024-02-29T10:44:23.819Z,812.00
2024-02-29T10:45:26.703Z,824.00
2024-02-29T10:46:24.880Z,837.00
2024-02-29T10:47:23.850Z,865.00
2024-02-29T10:48:23.895Z,880.00
2024-02-29T10:49:23.923Z,895.00
2024-02-29T10:50:23.853Z,905.00
2024-02-29T10:51:27.179Z,911.00
2024-02-29T10:52:23.911Z,917.00
2024-02-29T10:53:23.838Z,925.00
2024-02-29T10:54:23.904Z,929.00
2024-02-29T10:55:23.878Z,931.00
2024-02-29T10:56:23.863Z,968.00
2024-02-29T10:57:23.830Z,972.00
2024-02-29T10:58:23.939Z,969.00
2024-02-29T10:59:23.834Z,972.00
2024-02-29T11:00:23.849Z,984.00
2024-02-29T11:01:23.951Z,998.00
2024-02-29T11:02:23.842Z,1000.00
2024-02-29T11:03:23.920Z,1008.00
2024-02-29T11:04:23.911Z,1015.00
2024-02-29T11:05:23.921Z,1016.00
2024-02-29T11:06:23.841Z,1017.00
2024-02-29T11:07:23.964Z,1019.00
2024-02-29T11:08:23.839Z,1021.00
2024-02-29T11:09:27.292Z,1019.00
2024-02-29T11:10:23.902Z,1021.00
2024-02-29T11:11:23.996Z,1009.00
2024-02-29T11:12:23.899Z,1008.00
2024-02-29T11:13:23.917Z,1009.00
2024-02-29T11:14:23.852Z,1007.00
2024-02-29T11:15:25.077Z,1004.00
2024-02-29T11:16:24.047Z,1003.00
2024-02-29T11:17:24.479Z,1008.00
2024-02-29T11:18:23.922Z,1010.00
2024-02-29T11:19:24.548Z,1010.00
2024-02-29T11:20:24.462Z,1019.00
2024-02-29T11:21:23.909Z,1022.00
2024-02-29T11:22:23.958Z,1025.00
2024-02-29T11:23:23.937Z,1026.00
2024-02-29T11:24:24.051Z,997.00
2024-02-29T11:25:24.553Z,985.00
2024-02-29T11:26:24.403Z,975.00
2024-02-29T11:27:23.924Z,963.00
2024-02-29T11:28:24.339Z,956.00
2024-02-29T11:29:23.977Z,942.00
2024-02-29T11:30:24.526Z,933.00
2024-02-29T11:31:23.948Z,925.00
2024-02-29T11:32:23.930Z,923.00
2024-02-29T11:33:23.974Z,921.00
2024-02-29T11:34:23.949Z,925.00
2024-02-29T11:35:24.417Z,928.00
2024-02-29T11:36:23.920Z,927.00
2024-02-29T11:37:26.699Z,921.00
2024-02-29T11:38:29.261Z,910.00
2024-02-29T11:39:24.044Z,867.00
2024-02-29T11:40:23.996Z,864.00
2024-02-29T11:41:23.946Z,861.00
2024-02-29T11:42:23.943Z,853.00
2024-02-29T11:43:26.106Z,838.00
2024-02-29T11:44:23.981Z,834.00
2024-02-29T11:45:24.068Z,828.00
2024-02-29T11:46:23.979Z,821.00
2024-02-29T11:47:23.940Z,812.00
2024-02-29T11:48:23.939Z,808.00
2024-02-29T11:49:24.093Z,803.00
2024-02-29T11:50:24.412Z,795.00
2024-02-29T11:51:23.947Z,793.00
2024-02-29T11:52:23.992Z,789.00
2024-02-29T11:53:23.948Z,786.00
2024-02-29T11:54:26.638Z,786.00
2024-02-29T11:55:24.155Z,783.00
2024-02-29T11:56:24.421Z,784.00
2024-02-29T11:57:23.954Z,781.00
2024-02-29T11:58:24.067Z,771.00
2024-02-29T11:59:23.951Z,765.00
2024-02-29T12:00:23.968Z,768.00
2024-02-29T12:01:24.065Z,769.00
2024-02-29T12:02:23.960Z,773.00
2024-02-29T12:03:23.972Z,775.00
2024-02-29T12:04:24.040Z,770.00
2024-02-29T12:05:23.962Z,762.00
2024-02-29T12:06:23.964Z,757.00
2024-02-29T12:07:24.057Z,753.00
2024-02-29T12:08:23.968Z,769.00
2024-02-29T12:09:23.983Z,775.00
2024-02-29T12:10:23.978Z,766.00
2024-02-29T12:11:24.491Z,715.00
2024-02-29T12:12:24.001Z,686.00
2024-02-29T12:13:24.040Z,627.00
2024-02-29T12:14:24.051Z,614.00
2024-02-29T12:15:24.446Z,601.00
2024-02-29T12:16:23.977Z,589.00
2024-02-29T12:17:24.024Z,575.00
2024-02-29T12:18:24.036Z,583.00
2024-02-29T12:19:24.060Z,591.00
2024-02-29T12:20:23.992Z,595.00
2024-02-29T12:21:23.981Z,596.00
2024-02-29T12:22:24.066Z,611.00
2024-02-29T12:23:24.446Z,610.00
2024-02-29T12:24:24.063Z,617.00
2024-02-29T12:25:24.142Z,621.00
2024-02-29T12:26:24.120Z,655.00
2024-02-29T12:27:24.274Z,660.00
2024-02-29T12:28:24.280Z,661.00
2024-02-29T12:29:24.272Z,667.00
2024-02-29T12:30:24.247Z,672.00
2024-02-29T12:31:24.303Z,674.00
2024-02-29T12:32:24.280Z,675.00
2024-02-29T12:33:27.276Z,674.00
2024-02-29T12:34:24.619Z,681.00
2024-02-29T12:35:24.570Z,706.00
2024-02-29T12:36:24.636Z,722.00
2024-02-29T12:37:24.668Z,737.00
2024-02-29T12:38:24.700Z,742.00
2024-02-29T12:39:24.766Z,750.00
2024-02-29T12:40:24.979Z,755.00
2024-02-29T12:41:24.913Z,766.00
2024-02-29T12:42:25.027Z,778.00
2024-02-29T12:43:25.229Z,792.00
2024-02-29T12:44:25.176Z,807.00
2024-02-29T12:45:25.189Z,829.00
2024-02-29T12:46:25.347Z,829.00
2024-02-29T12:47:25.309Z,832.00
2024-02-29T12:48:25.367Z,835.00
2024-02-29T12:49:25.506Z,838.00
2024-02-29T12:50:25.489Z,842.00
2024-02-29T12:51:25.535Z,847.00
2024-02-29T12:52:25.622Z,851.00
2024-02-29T12:53:25.660Z,854.00
2024-02-29T12:54:25.690Z,857.00
2024-02-29T12:55:25.818Z,861.00
2024-02-29T12:56:25.832Z,862.00
2024-02-29T12:57:25.860Z,863.00
2024-02-29T12:58:25.985Z,865.00
2024-02-29T12:59:26.031Z,867.00
2024-02-29T13:00:25.946Z,865.00
2024-02-29T13:01:26.191Z,866.00
2024-02-29T13:02:26.058Z,863.00
2024-02-29T13:03:26.060Z,867.00
2024-02-29T13:04:26.476Z,871.00
2024-02-29T13:05:26.112Z,869.00
2024-02-29T13:06:26.472Z,872.00
2024-02-29T13:07:26.269Z,877.00
2024-02-29T13:08:26.230Z,868.00
2024-02-29T13:09:26.467Z,860.00
2024-02-29T13:10:26.427Z,861.00
2024-02-29T13:11:26.377Z,864.00
2024-02-29T13:12:26.446Z,871.00
2024-02-29T13:13:26.473Z,871.00
2024-02-29T13:14:26.473Z,881.00
2024-02-29T13:15:26.563Z,898.00
2024-02-29T13:16:26.632Z,935.00
2024-02-29T13:17:26.690Z,946.00
2024-02-29T13:18:26.759Z,950.00
2024-02-29T13:19:26.874Z,954.00
2024-02-29T13:20:26.890Z,957.00
2024-02-29T13:21:26.968Z,957.00
2024-02-29T13:22:27.078Z,956.00